createdAt,value
2017-03-18T00:00:52.348Z,6
2017-03-18T00:01:53.603Z,5.95
2017-03-18T00:02:54.875Z,5.88
2017-03-18T00:03:56.104Z,5.85
2017-03-18T00:04:57.372Z,5.85
2017-03-18T00:05:58.688Z,5.77
2017-03-18T00:06:59.861Z,5.88
2017-03-18T00:08:01.095Z,5.75
2017-03-18T00:09:02.340Z,5.81
2017-03-18T00:10:03.577Z,5.82
2017-03-18T00:11:04.880Z,5.81
2017-03-18T00:12:06.135Z,5.81
2017-03-18T00:13:07.371Z,5.78
2017-03-18T00:14:08.605Z,5.77
2017-03-18T00:15:09.886Z,5.81
2017-03-18T00:16:11.121Z,5.77
2017-03-18T00:17:12.363Z,5.75
2017-03-18T00:18:13.676Z,5.68
2017-03-18T00:19:14.918Z,5.68
2017-03-18T00:20:16.141Z,5.73
2017-03-18T00:21:17.469Z,5.71
2017-03-18T00:22:18.709Z,5.73
2017-03-18T00:23:19.956Z,5.66
2017-03-18T00:24:21.210Z,5.7
2017-03-18T00:25:22.456Z,5.71
2017-03-18T00:26:23.722Z,5.71
2017-03-18T00:27:24.950Z,5.71
2017-03-18T00:28:26.179Z,5.67
2017-03-18T00:29:27.428Z,5.6
2017-03-18T00:30:28.657Z,5.63
2017-03-18T00:31:29.896Z,5.6
2017-03-18T00:32:31.145Z,5.56
2017-03-18T00:33:32.382Z,5.64
2017-03-18T00:34:33.618Z,5.6
2017-03-18T00:35:34.881Z,5.53
2017-03-18T00:36:36.126Z,5.59
2017-03-18T00:37:37.378Z,5.59
2017-03-18T00:38:38.626Z,5.6
2017-03-18T00:39:39.971Z,5.55
2017-03-18T00:40:41.216Z,5.43
2017-03-18T00:41:42.438Z,5.5
2017-03-18T00:42:43.673Z,5.6
2017-03-18T00:43:45.095Z,5.6
2017-03-18T00:44:46.337Z,5.6
2017-03-18T00:45:47.597Z,5.48
2017-03-18T00:46:48.839Z,5.52
2017-03-18T00:47:50.071Z,5.59
2017-03-18T00:48:51.348Z,5.55
2017-03-18T00:49:52.590Z,5.57
2017-03-18T00:50:53.837Z,5.59
2017-03-18T00:51:55.081Z,5.6
2017-03-18T00:52:56.329Z,5.57
2017-03-18T00:53:57.571Z,5.6
2017-03-18T00:54:58.792Z,5.6
2017-03-18T00:56:00.035Z,5.66
2017-03-18T00:57:01.263Z,5.66
2017-03-18T00:58:02.505Z,5.66
2017-03-18T00:59:03.751Z,5.67
2017-03-18T01:00:04.984Z,5.59
2017-03-18T01:01:06.229Z,5.67
2017-03-18T01:02:07.491Z,5.71
2017-03-18T01:03:08.807Z,5.66
2017-03-18T01:04:10.095Z,5.68
2017-03-18T01:05:11.333Z,5.71
2017-03-18T01:06:12.576Z,5.7
2017-03-18T01:07:13.828Z,5.75
2017-03-18T01:08:15.116Z,5.71
2017-03-18T01:09:16.367Z,5.81
2017-03-18T01:10:17.611Z,5.81
2017-03-18T01:11:18.851Z,5.82
2017-03-18T01:12:20.084Z,5.78
2017-03-18T01:13:21.387Z,5.74
2017-03-18T01:14:22.651Z,5.74
2017-03-18T01:15:23.878Z,5.78
2017-03-18T01:16:25.165Z,5.73
2017-03-18T01:17:26.400Z,5.81
2017-03-18T01:18:27.636Z,5.78
2017-03-18T01:19:28.866Z,5.89
2017-03-18T01:20:30.108Z,5.82
2017-03-18T01:21:31.364Z,5.89
2017-03-18T01:22:32.624Z,5.83
2017-03-18T01:23:33.860Z,5.85
2017-03-18T01:24:35.105Z,5.85
2017-03-18T01:25:36.407Z,5.82
2017-03-18T01:26:37.629Z,5.83
2017-03-18T01:27:38.871Z,5.82
2017-03-18T01:28:40.109Z,5.89
2017-03-18T01:29:41.349Z,5.91
2017-03-18T01:30:42.620Z,5.92
2017-03-18T01:31:43.897Z,5.82
2017-03-18T01:32:45.163Z,5.81
2017-03-18T01:33:46.411Z,5.89
2017-03-18T01:34:47.655Z,5.93
2017-03-18T01:35:48.884Z,6.01
2017-03-18T01:36:50.151Z,5.86
2017-03-18T01:37:51.370Z,5.96
2017-03-18T01:38:52.613Z,5.91
2017-03-18T01:39:53.854Z,5.96
2017-03-18T01:40:55.170Z,5.89
2017-03-18T01:41:56.499Z,6.03
2017-03-18T01:42:58.016Z,5.92
2017-03-18T01:43:59.278Z,6
2017-03-18T01:45:00.506Z,6.01
2017-03-18T01:46:01.838Z,6.01
2017-03-18T01:47:03.213Z,6.01
2017-03-18T01:48:04.328Z,6.01
2017-03-18T01:49:05.593Z,6
2017-03-18T01:50:06.824Z,6.07
2017-03-18T01:51:08.064Z,6.03
2017-03-18T01:52:09.363Z,6.04
2017-03-18T01:53:10.597Z,6.06
2017-03-18T01:54:11.840Z,6.06
2017-03-18T01:55:13.083Z,6.07
2017-03-18T01:56:14.477Z,6.04
2017-03-18T01:57:15.620Z,6.18
2017-03-18T01:58:16.840Z,6.03
2017-03-18T01:59:18.086Z,6.18
2017-03-18T02:00:19.355Z,6.14
2017-03-18T02:01:20.585Z,6.26
2017-03-18T02:02:21.856Z,6.21
2017-03-18T02:03:23.088Z,6.33
2017-03-18T02:04:24.328Z,6.33
2017-03-18T02:05:25.633Z,6.32
2017-03-18T02:06:26.921Z,6.29
2017-03-18T02:07:28.287Z,6.32
2017-03-18T02:08:29.535Z,6.36
2017-03-18T02:09:30.787Z,6.29
2017-03-18T02:10:32.043Z,6.3
2017-03-18T02:11:33.297Z,6.29
2017-03-18T02:12:34.531Z,6.36
2017-03-18T02:13:35.830Z,6.33
2017-03-18T02:14:37.170Z,6.36
2017-03-18T02:15:38.462Z,6.4
2017-03-18T02:16:39.728Z,6.36
2017-03-18T02:17:41.087Z,6.38
2017-03-18T02:18:42.317Z,6.46
2017-03-18T02:19:43.557Z,6.43
2017-03-18T02:20:44.815Z,6.48
2017-03-18T02:21:46.037Z,6.48
2017-03-18T02:22:47.298Z,6.43
2017-03-18T02:23:48.527Z,6.51
2017-03-18T02:24:49.775Z,6.51
2017-03-18T02:25:51.101Z,6.5
2017-03-18T02:26:52.336Z,6.5
2017-03-18T02:27:53.579Z,6.59
2017-03-18T02:28:54.820Z,6.53
2017-03-18T02:29:56.088Z,6.46
2017-03-18T02:30:57.340Z,6.56
2017-03-18T02:31:58.617Z,6.56
2017-03-18T02:32:59.860Z,6.56
2017-03-18T02:34:01.124Z,6.59
2017-03-18T02:35:02.453Z,6.58
2017-03-18T02:36:03.691Z,6.59
2017-03-18T02:37:04.914Z,6.54
2017-03-18T02:38:06.291Z,6.59
2017-03-18T02:39:07.549Z,6.56
2017-03-18T02:40:08.835Z,6.56
2017-03-18T02:41:10.102Z,6.59
2017-03-18T02:42:11.344Z,6.56
2017-03-18T02:43:12.596Z,6.56
2017-03-18T02:44:13.828Z,6.56
2017-03-18T02:45:15.176Z,6.54
2017-03-18T02:46:16.579Z,6.68
2017-03-18T02:47:17.700Z,6.54
2017-03-18T02:48:18.932Z,6.65
2017-03-18T02:49:20.166Z,6.58
2017-03-18T02:50:21.511Z,6.56
2017-03-18T02:51:22.767Z,6.63
2017-03-18T02:52:23.984Z,6.58
2017-03-18T02:53:25.212Z,6.65
2017-03-18T02:54:26.446Z,6.68
2017-03-18T02:55:27.705Z,6.59
2017-03-18T02:56:28.944Z,6.62
2017-03-18T02:57:30.171Z,6.59
2017-03-18T02:58:31.459Z,6.72
2017-03-18T02:59:32.693Z,6.68
2017-03-18T03:00:33.930Z,6.58
2017-03-18T03:01:35.178Z,6.69
2017-03-18T03:02:36.454Z,6.65
2017-03-18T03:03:37.703Z,6.66
2017-03-18T03:04:39.065Z,6.68
2017-03-18T03:05:40.443Z,6.71
2017-03-18T03:06:41.596Z,6.63
2017-03-18T03:07:42.833Z,6.61
2017-03-18T03:08:44.110Z,6.65
2017-03-18T03:09:45.415Z,6.66
2017-03-18T03:10:46.642Z,6.68
2017-03-18T03:11:47.871Z,6.65
2017-03-18T03:12:49.133Z,6.63
2017-03-18T03:13:50.375Z,6.68
2017-03-18T03:14:51.606Z,6.62
2017-03-18T03:15:52.866Z,6.66
2017-03-18T03:16:54.109Z,6.68
2017-03-18T03:17:55.353Z,6.63
2017-03-18T03:18:56.612Z,6.72
2017-03-18T03:19:57.835Z,6.65
2017-03-18T03:20:59.094Z,6.76
2017-03-18T03:22:00.325Z,6.8
2017-03-18T03:23:01.563Z,6.71
2017-03-18T03:24:02.958Z,6.71
2017-03-18T03:25:04.190Z,6.72
2017-03-18T03:26:05.426Z,6.69
2017-03-18T03:27:06.675Z,6.72
2017-03-18T03:28:07.917Z,6.71
2017-03-18T03:29:09.385Z,6.69
2017-03-18T03:30:10.712Z,6.71
2017-03-18T03:31:11.916Z,6.79
2017-03-18T03:32:13.159Z,6.86
2017-03-18T03:33:14.393Z,6.72
2017-03-18T03:34:15.695Z,6.8
2017-03-18T03:35:16.940Z,6.69
2017-03-18T03:36:18.278Z,6.72
2017-03-18T03:37:19.614Z,6.83
2017-03-18T03:38:20.867Z,6.83
2017-03-18T03:39:22.107Z,6.89
2017-03-18T03:40:23.367Z,6.81
2017-03-18T03:41:24.602Z,6.83
2017-03-18T03:42:25.852Z,6.86
2017-03-18T03:43:27.100Z,6.89
2017-03-18T03:44:28.329Z,6.94
2017-03-18T03:45:29.589Z,6.86
2017-03-18T03:46:30.918Z,6.91
2017-03-18T03:47:32.157Z,6.86
2017-03-18T03:48:33.401Z,6.89
2017-03-18T03:49:34.771Z,6.83
2017-03-18T03:50:36.000Z,6.87
2017-03-18T03:51:37.251Z,6.99
2017-03-18T03:52:38.507Z,6.95
2017-03-18T03:53:39.730Z,6.97
2017-03-18T03:54:41.069Z,7.01
2017-03-18T03:55:42.210Z,6.94
2017-03-18T03:56:43.484Z,6.9
2017-03-18T03:57:44.734Z,7.05
2017-03-18T03:58:46.005Z,7.07
2017-03-18T03:59:47.231Z,7.01
2017-03-18T04:00:48.484Z,7.02
2017-03-18T04:01:49.742Z,7.05
2017-03-18T04:02:51.014Z,7.04
2017-03-18T04:03:52.231Z,6.99
2017-03-18T04:04:53.583Z,7.08
2017-03-18T04:05:54.846Z,7.13
2017-03-18T04:06:56.070Z,7.08
2017-03-18T04:07:57.321Z,7.13
2017-03-18T04:08:58.590Z,7.08
2017-03-18T04:09:59.854Z,7.13
2017-03-18T04:11:01.102Z,7.13
2017-03-18T04:12:02.339Z,7.09
2017-03-18T04:13:03.596Z,7.15
2017-03-18T04:14:04.853Z,7.16
2017-03-18T04:15:06.086Z,7.16
2017-03-18T04:16:07.318Z,7.15
2017-03-18T04:17:08.603Z,7.2
2017-03-18T04:18:09.839Z,7.22
2017-03-18T04:19:11.096Z,7.22
2017-03-18T04:20:12.327Z,7.19
2017-03-18T04:21:13.622Z,7.23
2017-03-18T04:22:14.806Z,7.24
2017-03-18T04:23:16.039Z,7.24
2017-03-18T04:24:17.282Z,7.35
2017-03-18T04:25:18.538Z,7.32
2017-03-18T04:26:19.771Z,7.29
2017-03-18T04:27:21.153Z,7.38
2017-03-18T04:28:22.413Z,7.41
2017-03-18T04:29:23.638Z,7.32
2017-03-18T04:30:24.882Z,7.4
2017-03-18T04:31:26.123Z,7.35
2017-03-18T04:32:27.414Z,7.42
2017-03-18T04:33:28.655Z,7.4
2017-03-18T04:34:30.001Z,7.41
2017-03-18T04:35:31.251Z,7.41
2017-03-18T04:36:32.466Z,7.38
2017-03-18T04:37:33.745Z,7.37
2017-03-18T04:38:34.984Z,7.44
2017-03-18T04:39:36.224Z,7.4
2017-03-18T04:40:37.458Z,7.4
2017-03-18T04:41:38.693Z,7.55
2017-03-18T04:42:39.962Z,7.53
2017-03-18T04:43:41.296Z,7.55
2017-03-18T04:44:42.580Z,7.52
2017-03-18T04:45:43.819Z,7.47
2017-03-18T04:46:45.135Z,7.47
2017-03-18T04:47:46.380Z,7.53
2017-03-18T04:48:47.617Z,7.49
2017-03-18T04:49:48.847Z,7.56
2017-03-18T04:50:50.086Z,7.62
2017-03-18T04:51:51.367Z,7.56
2017-03-18T04:52:52.610Z,7.67
2017-03-18T04:53:53.923Z,7.66
2017-03-18T04:54:55.144Z,7.63
2017-03-18T04:55:56.378Z,7.53
2017-03-18T04:56:57.741Z,7.6
2017-03-18T04:57:59.009Z,7.67
2017-03-18T04:59:00.233Z,7.67
2017-03-18T05:00:01.471Z,7.69
2017-03-18T05:01:02.709Z,7.72
2017-03-18T05:02:03.947Z,7.72
2017-03-18T05:03:05.264Z,7.72
2017-03-18T05:04:06.513Z,7.69
2017-03-18T05:05:07.850Z,7.75
2017-03-18T05:06:09.086Z,7.75
2017-03-18T05:07:10.357Z,7.72
2017-03-18T05:08:11.572Z,7.77
2017-03-18T05:09:12.812Z,7.81
2017-03-18T05:10:14.060Z,7.94
2017-03-18T05:11:15.412Z,7.79
2017-03-18T05:12:16.639Z,7.82
2017-03-18T05:13:17.876Z,7.82
2017-03-18T05:14:19.120Z,7.85
2017-03-18T05:15:20.356Z,7.89
2017-03-18T05:16:21.618Z,7.87
2017-03-18T05:17:22.858Z,7.85
2017-03-18T05:18:24.095Z,7.89
2017-03-18T05:19:25.343Z,7.87
2017-03-18T05:20:26.589Z,7.92
2017-03-18T05:21:27.824Z,7.93
2017-03-18T05:22:29.072Z,7.87
2017-03-18T05:23:30.304Z,7.99
2017-03-18T05:24:31.556Z,7.94
2017-03-18T05:25:32.795Z,7.99
2017-03-18T05:26:34.031Z,8.03
2017-03-18T05:27:35.275Z,8.02
2017-03-18T05:28:36.515Z,8.08
2017-03-18T05:29:37.947Z,8.11
2017-03-18T05:30:39.338Z,8.1
2017-03-18T05:31:40.465Z,8.07
2017-03-18T05:32:41.809Z,8.1
2017-03-18T05:33:43.055Z,8.08
2017-03-18T05:34:44.297Z,8.04
2017-03-18T05:35:45.513Z,8.04
2017-03-18T05:36:46.756Z,8.18
2017-03-18T05:37:48.008Z,8.1
2017-03-18T05:38:49.408Z,8.22
2017-03-18T05:39:50.659Z,8.1
2017-03-18T05:40:51.936Z,8.1
2017-03-18T05:41:53.214Z,8.22
2017-03-18T05:42:54.478Z,8.15
2017-03-18T05:43:55.699Z,8.2
2017-03-18T05:44:56.938Z,8.15
2017-03-18T05:45:58.167Z,8.14
2017-03-18T05:46:59.400Z,8.18
2017-03-18T05:48:00.634Z,8.28
2017-03-18T05:49:01.875Z,8.21
2017-03-18T05:50:03.110Z,8.26
2017-03-18T05:51:04.347Z,8.21
2017-03-18T05:52:05.592Z,8.28
2017-03-18T05:53:06.821Z,8.29
2017-03-18T05:54:08.054Z,8.3
2017-03-18T05:55:09.353Z,8.33
2017-03-18T05:56:10.569Z,8.4
2017-03-18T05:57:11.820Z,8.33
2017-03-18T05:58:13.075Z,8.4
2017-03-18T05:59:14.300Z,8.42
2017-03-18T06:00:15.568Z,8.42
2017-03-18T06:01:16.780Z,8.44
2017-03-18T06:02:18.042Z,8.45
2017-03-18T06:03:19.441Z,8.5
2017-03-18T06:04:20.562Z,8.5
2017-03-18T06:05:21.824Z,8.5
2017-03-18T06:06:23.061Z,8.55
2017-03-18T06:07:24.309Z,8.57
2017-03-18T06:08:25.547Z,8.6
2017-03-18T06:09:26.850Z,8.57
2017-03-18T06:10:28.068Z,8.68
2017-03-18T06:11:29.433Z,8.66
2017-03-18T06:12:30.656Z,8.72
2017-03-18T06:13:31.880Z,8.76
2017-03-18T06:14:33.122Z,8.73
2017-03-18T06:15:34.358Z,8.75
2017-03-18T06:16:35.619Z,8.76
2017-03-18T06:17:36.857Z,8.76
2017-03-18T06:18:38.094Z,8.88
2017-03-18T06:19:39.332Z,8.86
2017-03-18T06:20:40.568Z,8.88
2017-03-18T06:21:41.824Z,8.86
2017-03-18T06:22:43.138Z,8.81
2017-03-18T06:23:44.374Z,8.9
2017-03-18T06:24:45.633Z,8.96
2017-03-18T06:25:46.845Z,8.96
2017-03-18T06:26:48.079Z,9.02
2017-03-18T06:27:49.414Z,9.05
2017-03-18T06:28:50.681Z,9.1
2017-03-18T06:29:51.911Z,9.1
2017-03-18T06:30:53.159Z,9.13
2017-03-18T06:31:54.410Z,9.13
2017-03-18T06:32:55.659Z,9.1
2017-03-18T06:33:56.896Z,9.21
2017-03-18T06:34:58.138Z,9.24
2017-03-18T06:35:59.397Z,9.28
2017-03-18T06:37:00.656Z,9.24
2017-03-18T06:38:01.926Z,9.28
2017-03-18T06:39:03.161Z,9.34
2017-03-18T06:40:04.432Z,9.35
2017-03-18T06:41:05.650Z,9.3
2017-03-18T06:42:06.873Z,9.38
2017-03-18T06:43:08.242Z,9.38
2017-03-18T06:44:09.536Z,9.42
2017-03-18T06:45:10.794Z,9.46
2017-03-18T06:46:12.066Z,9.5
2017-03-18T06:47:13.272Z,9.48
2017-03-18T06:48:14.529Z,9.5
2017-03-18T06:49:15.757Z,9.5
2017-03-18T06:50:17.040Z,9.5
2017-03-18T06:51:18.263Z,9.58
2017-03-18T06:52:19.649Z,9.58
2017-03-18T06:53:20.883Z,9.58
2017-03-18T06:54:22.120Z,9.56
2017-03-18T06:55:23.361Z,9.57
2017-03-18T06:56:24.623Z,9.5
2017-03-18T06:57:25.922Z,9.66
2017-03-18T06:58:27.135Z,9.67
2017-03-18T06:59:28.387Z,9.61
2017-03-18T07:00:29.619Z,9.61
2017-03-18T07:01:30.871Z,9.63
2017-03-18T07:02:32.120Z,9.71
2017-03-18T07:03:33.378Z,9.71
2017-03-18T07:04:34.782Z,9.75
2017-03-18T07:05:35.900Z,9.7
2017-03-18T07:06:37.125Z,9.81
2017-03-18T07:07:38.362Z,9.71
2017-03-18T07:08:39.611Z,9.86
2017-03-18T07:09:40.850Z,9.71
2017-03-18T07:10:42.087Z,9.75
2017-03-18T07:11:43.326Z,9.7
2017-03-18T07:12:44.559Z,9.68
2017-03-18T07:13:45.814Z,9.83
2017-03-18T07:14:47.128Z,9.83
2017-03-18T07:15:48.431Z,9.85
2017-03-18T07:16:49.667Z,9.86
2017-03-18T07:17:50.944Z,9.85
2017-03-18T07:18:52.143Z,9.83
2017-03-18T07:19:53.386Z,9.85
2017-03-18T07:20:54.619Z,9.89
2017-03-18T07:21:55.967Z,9.83
2017-03-18T07:22:57.263Z,9.88
2017-03-18T07:23:58.494Z,9.85
2017-03-18T07:24:59.849Z,9.91
2017-03-18T07:26:01.092Z,9.83
2017-03-18T07:27:02.379Z,9.79
2017-03-18T07:28:03.632Z,9.89
2017-03-18T07:29:05.022Z,9.88
2017-03-18T07:30:06.155Z,9.86
2017-03-18T07:31:07.426Z,9.86
2017-03-18T07:32:08.666Z,9.86
2017-03-18T07:33:09.911Z,9.85
2017-03-18T07:34:11.280Z,9.93
2017-03-18T07:35:12.522Z,10.01
2017-03-18T07:36:13.789Z,10.01
2017-03-18T07:37:15.010Z,9.99
2017-03-18T07:38:16.239Z,10.03
2017-03-18T07:39:17.525Z,10.01
2017-03-18T07:40:18.799Z,10.07
2017-03-18T07:41:20.070Z,10
2017-03-18T07:42:21.396Z,10.1
2017-03-18T07:43:22.663Z,10.07
2017-03-18T07:44:23.904Z,10.03
2017-03-18T07:45:25.298Z,10.12
2017-03-18T07:46:26.518Z,10.07
2017-03-18T07:47:27.760Z,10.07
2017-03-18T07:48:29.009Z,10.14
2017-03-18T07:49:30.262Z,10.06
2017-03-18T07:50:31.527Z,10.04
2017-03-18T07:51:32.765Z,9.97
2017-03-18T07:52:34.077Z,10.1
2017-03-18T07:53:35.323Z,10.09
2017-03-18T07:54:36.563Z,10.09
2017-03-18T07:55:37.795Z,10.06
2017-03-18T07:56:39.066Z,10.1
2017-03-18T07:57:40.303Z,10.12
2017-03-18T07:58:41.563Z,10.12
2017-03-18T07:59:42.797Z,10.07
2017-03-18T08:00:44.134Z,10.07
2017-03-18T08:01:45.373Z,10.12
2017-03-18T08:02:46.612Z,10.06
2017-03-18T08:03:47.872Z,10.12
2017-03-18T08:04:49.227Z,10.06
2017-03-18T08:05:50.466Z,10.14
2017-03-18T08:06:51.703Z,10.15
2017-03-18T08:07:52.956Z,10.17
2017-03-18T08:08:54.211Z,10.15
2017-03-18T08:09:55.447Z,10.26
2017-03-18T08:10:56.690Z,10.19
2017-03-18T08:11:58.013Z,10.18
2017-03-18T08:12:59.303Z,10.19
2017-03-18T08:14:00.659Z,10.21
2017-03-18T08:15:01.788Z,10.17
2017-03-18T08:16:03.023Z,10.21
2017-03-18T08:17:04.308Z,10.17
2017-03-18T08:18:05.569Z,10.19
2017-03-18T08:19:06.818Z,10.25
2017-03-18T08:20:08.057Z,10.24
2017-03-18T08:21:09.305Z,10.32
2017-03-18T08:22:10.546Z,10.34
2017-03-18T08:23:11.845Z,10.37
2017-03-18T08:24:13.177Z,10.39
2017-03-18T08:25:14.443Z,10.28
2017-03-18T08:26:15.646Z,10.4
2017-03-18T08:27:16.891Z,10.42
2017-03-18T08:28:18.132Z,10.42
2017-03-18T08:29:19.375Z,10.39
2017-03-18T08:30:20.627Z,10.42
2017-03-18T08:31:21.880Z,10.32
2017-03-18T08:32:23.141Z,10.42
2017-03-18T08:33:24.383Z,10.28
2017-03-18T08:34:25.686Z,10.26
2017-03-18T08:35:26.923Z,10.34
2017-03-18T08:36:28.177Z,10.36
2017-03-18T08:37:29.581Z,10.32
2017-03-18T08:38:30.842Z,10.33
2017-03-18T08:39:32.106Z,10.37
2017-03-18T08:40:33.351Z,10.39
2017-03-18T08:41:34.589Z,10.32
2017-03-18T08:42:35.865Z,10.3
2017-03-18T08:43:37.107Z,10.3
2017-03-18T08:44:38.389Z,10.32
2017-03-18T08:45:39.635Z,10.26
2017-03-18T08:46:40.876Z,10.33
2017-03-18T08:47:42.115Z,10.33
2017-03-18T08:48:43.352Z,10.28
2017-03-18T08:49:44.695Z,10.3
2017-03-18T08:50:45.937Z,10.32
2017-03-18T08:51:47.173Z,10.36
2017-03-18T08:52:48.417Z,10.28
2017-03-18T08:53:49.754Z,10.26
2017-03-18T08:54:51.029Z,10.18
2017-03-18T08:55:52.287Z,10.19
2017-03-18T08:56:53.616Z,10.17
2017-03-18T08:57:54.889Z,10.1
2017-03-18T08:58:56.109Z,10.17
2017-03-18T08:59:57.347Z,10.12
2017-03-18T09:00:58.604Z,10.1
2017-03-18T09:01:59.854Z,10.09
2017-03-18T09:03:01.227Z,10.1
2017-03-18T09:04:02.436Z,10.1
2017-03-18T09:05:03.674Z,10.07
2017-03-18T09:06:04.914Z,10.18
2017-03-18T09:07:06.159Z,10.19
2017-03-18T09:08:07.495Z,10.3
2017-03-18T09:09:08.734Z,10.3
2017-03-18T09:10:09.959Z,10.37
2017-03-18T09:11:11.190Z,10.37
2017-03-18T09:12:12.472Z,10.56
2017-03-18T09:13:13.704Z,10.68
2017-03-18T09:14:14.961Z,10.65
2017-03-18T09:15:16.305Z,10.78
2017-03-18T09:16:17.562Z,10.95
2017-03-18T09:17:18.804Z,10.96
2017-03-18T09:18:20.040Z,11.01
2017-03-18T09:19:21.294Z,11.02
2017-03-18T09:20:22.550Z,11.06
2017-03-18T09:21:23.815Z,11.01
2017-03-18T09:22:25.062Z,10.99
2017-03-18T09:23:26.289Z,11.01
2017-03-18T09:24:27.538Z,10.99
2017-03-18T09:25:28.790Z,11.07
2017-03-18T09:26:30.074Z,11.07
2017-03-18T09:27:31.339Z,10.98
2017-03-18T09:28:32.564Z,11.11
2017-03-18T09:29:33.856Z,11.11
2017-03-18T09:30:35.070Z,11.16
2017-03-18T09:31:36.351Z,11.13
2017-03-18T09:32:37.593Z,11.13
2017-03-18T09:33:38.834Z,11.17
2017-03-18T09:34:40.069Z,11.2
2017-03-18T09:35:41.344Z,11.27
2017-03-18T09:36:42.593Z,11.14
2017-03-18T09:37:43.831Z,11.19
2017-03-18T09:38:45.068Z,11.24
2017-03-18T09:39:46.415Z,11.17
2017-03-18T09:40:47.657Z,11.2
2017-03-18T09:41:48.904Z,11.06
2017-03-18T09:42:50.144Z,11.16
2017-03-18T09:43:51.372Z,11.02
2017-03-18T09:44:52.618Z,10.94
2017-03-18T09:45:53.894Z,10.83
2017-03-18T09:46:55.171Z,10.78
2017-03-18T09:47:56.452Z,10.62
2017-03-18T09:48:57.680Z,10.71
2017-03-18T09:49:58.927Z,10.6
2017-03-18T09:51:00.161Z,10.55
2017-03-18T09:52:01.428Z,10.51
2017-03-18T09:53:02.677Z,10.59
2017-03-18T09:54:03.950Z,10.58
2017-03-18T09:55:05.205Z,10.51
2017-03-18T09:56:06.442Z,10.53
2017-03-18T09:57:07.758Z,10.51
2017-03-18T09:58:09.001Z,10.47
2017-03-18T09:59:10.291Z,10.51
2017-03-18T10:00:11.588Z,10.44
2017-03-18T10:01:12.855Z,10.52
2017-03-18T10:02:14.080Z,10.51
2017-03-18T10:03:15.337Z,10.58
2017-03-18T10:04:16.564Z,10.6
2017-03-18T10:05:17.798Z,10.74
2017-03-18T10:06:19.090Z,10.77
2017-03-18T10:07:20.333Z,10.73
2017-03-18T10:08:21.574Z,10.91
2017-03-18T10:09:22.818Z,10.92
2017-03-18T10:10:24.072Z,11.03
2017-03-18T10:11:25.347Z,11.16
2017-03-18T10:12:26.635Z,11.24
2017-03-18T10:13:27.923Z,11.41
2017-03-18T10:14:29.237Z,11.44
2017-03-18T10:15:30.472Z,11.5
2017-03-18T10:16:31.708Z,11.44
2017-03-18T10:17:32.956Z,11.54
2017-03-18T10:18:34.346Z,11.61
2017-03-18T10:19:35.685Z,11.57
2017-03-18T10:20:37.025Z,11.62
2017-03-18T10:21:38.295Z,11.7
2017-03-18T10:22:39.636Z,11.77
2017-03-18T10:23:40.975Z,11.67
2017-03-18T10:24:42.264Z,11.67
2017-03-18T10:25:43.526Z,11.65
2017-03-18T10:26:44.887Z,11.53
2017-03-18T10:27:46.121Z,11.46
2017-03-18T10:28:47.505Z,11.57
2017-03-18T10:29:48.818Z,11.67
2017-03-18T10:30:50.095Z,11.54
2017-03-18T10:31:51.366Z,11.54
2017-03-18T10:32:52.601Z,11.59
2017-03-18T10:33:53.941Z,11.57
2017-03-18T10:34:55.226Z,11.65
2017-03-18T10:35:56.527Z,11.74
2017-03-18T10:36:57.823Z,11.72
2017-03-18T10:37:59.072Z,11.77
2017-03-18T10:39:00.313Z,11.9
2017-03-18T10:40:01.566Z,11.9
2017-03-18T10:41:02.824Z,12.05
2017-03-18T10:42:04.178Z,12.02
2017-03-18T10:43:05.505Z,12.08
2017-03-18T10:44:06.814Z,12.2
2017-03-18T10:45:08.069Z,12.3
2017-03-18T10:46:09.301Z,12.45
2017-03-18T10:47:10.757Z,12.41
2017-03-18T10:48:12.026Z,12.44
2017-03-18T10:49:13.266Z,12.34
2017-03-18T10:50:14.510Z,12.33
2017-03-18T10:51:15.766Z,12.31
2017-03-18T10:52:17.030Z,12.26
2017-03-18T10:53:18.278Z,12.16
2017-03-18T10:54:19.524Z,12.19
2017-03-18T10:55:20.770Z,12.2
2017-03-18T10:56:22.034Z,12.13
2017-03-18T10:57:23.278Z,12.31
2017-03-18T10:58:24.530Z,12.3
2017-03-18T10:59:25.785Z,12.41
2017-03-18T11:00:27.082Z,12.42
2017-03-18T11:01:28.369Z,12.44
2017-03-18T11:02:29.607Z,12.56
2017-03-18T11:03:30.851Z,12.66
2017-03-18T11:04:32.123Z,12.63
2017-03-18T11:05:33.450Z,12.7
2017-03-18T11:06:34.709Z,12.75
2017-03-18T11:07:36.001Z,12.85
2017-03-18T11:08:37.219Z,12.84
2017-03-18T11:09:38.478Z,13.07
2017-03-18T11:10:39.726Z,13.07
2017-03-18T11:11:41.056Z,13.14
2017-03-18T11:12:42.298Z,13.09
2017-03-18T11:13:43.558Z,13.15
2017-03-18T11:14:44.854Z,13.14
2017-03-18T11:15:46.096Z,13.12
2017-03-18T11:16:47.351Z,13.18
2017-03-18T11:17:48.602Z,13.06
2017-03-18T11:18:49.861Z,13.18
2017-03-18T11:19:51.134Z,13.25
2017-03-18T11:20:52.366Z,13.46
2017-03-18T11:21:53.626Z,13.41
2017-03-18T11:22:54.895Z,13.59
2017-03-18T11:23:56.155Z,13.63
2017-03-18T11:24:57.465Z,13.73
2017-03-18T11:25:58.706Z,13.81
2017-03-18T11:26:59.994Z,14.09
2017-03-18T11:28:01.254Z,14.13
2017-03-18T11:29:02.536Z,14.1
2017-03-18T11:30:03.792Z,14.17
2017-03-18T11:31:05.044Z,14.19
2017-03-18T11:32:06.312Z,14.28
2017-03-18T11:33:07.681Z,14.38
2017-03-18T11:34:08.928Z,14.35
2017-03-18T11:35:10.189Z,14.31
2017-03-18T11:36:11.489Z,14.31
2017-03-18T11:37:12.744Z,14.24
2017-03-18T11:38:14.040Z,14.17
2017-03-18T11:39:15.291Z,14.04
2017-03-18T11:40:16.541Z,14.12
2017-03-18T11:41:17.789Z,14.16
2017-03-18T11:42:19.134Z,14.16
2017-03-18T11:43:20.418Z,14.17
2017-03-18T11:44:21.760Z,14.16
2017-03-18T11:45:23.029Z,14.07
2017-03-18T11:46:24.308Z,13.77
2017-03-18T11:47:25.622Z,13.51
2017-03-18T11:48:26.948Z,13.49
2017-03-18T11:49:28.204Z,13.62
2017-03-18T11:50:29.477Z,13.54
2017-03-18T11:51:30.697Z,13.49
2017-03-18T11:52:31.963Z,13.41
2017-03-18T11:53:33.192Z,13.33
2017-03-18T11:54:34.453Z,13.25
2017-03-18T11:55:35.814Z,13.29
2017-03-18T11:56:37.066Z,13.36
2017-03-18T11:57:38.311Z,13.41
2017-03-18T11:58:39.565Z,13.3
2017-03-18T11:59:40.821Z,13.18
2017-03-18T12:00:42.063Z,13.15
2017-03-18T12:01:43.400Z,13.03
2017-03-18T12:02:44.653Z,12.97
2017-03-18T12:03:45.911Z,12.97
2017-03-18T12:04:47.151Z,12.95
2017-03-18T12:05:48.413Z,13.06
2017-03-18T12:06:49.846Z,13.18
2017-03-18T12:07:51.084Z,13.14
2017-03-18T12:08:52.335Z,13.33
2017-03-18T12:09:53.579Z,13.36
2017-03-18T12:10:54.830Z,13.41
2017-03-18T12:11:56.112Z,13.27
2017-03-18T12:12:57.362Z,13.32
2017-03-18T12:13:58.611Z,13.14
2017-03-18T12:14:59.874Z,13.06
2017-03-18T12:16:01.093Z,12.96
2017-03-18T12:17:02.332Z,13.03
2017-03-18T12:18:03.591Z,12.96
2017-03-18T12:19:04.825Z,13.07
2017-03-18T12:20:06.085Z,13.18
2017-03-18T12:21:07.382Z,13.21
2017-03-18T12:22:08.667Z,13.27
2017-03-18T12:23:09.888Z,13.37
2017-03-18T12:24:11.219Z,13.51
2017-03-18T12:25:12.452Z,13.52
2017-03-18T12:26:13.778Z,13.65
2017-03-18T12:27:15.028Z,13.8
2017-03-18T12:28:16.257Z,13.84
2017-03-18T12:29:17.498Z,13.95
2017-03-18T12:30:18.739Z,13.91
2017-03-18T12:31:19.983Z,13.95
2017-03-18T12:32:21.269Z,13.79
2017-03-18T12:33:22.606Z,13.63
2017-03-18T12:34:23.859Z,13.61
2017-03-18T12:35:25.125Z,13.55
2017-03-18T12:36:26.345Z,13.54
2017-03-18T12:37:27.592Z,13.63
2017-03-18T12:38:28.830Z,13.58
2017-03-18T12:39:30.078Z,13.62
2017-03-18T12:40:31.346Z,13.56
2017-03-18T12:41:32.583Z,13.67
2017-03-18T12:42:33.851Z,13.65
2017-03-18T12:43:35.091Z,13.54
2017-03-18T12:44:36.353Z,13.63
2017-03-18T12:45:37.684Z,13.63
2017-03-18T12:46:38.902Z,13.8
2017-03-18T12:47:40.142Z,13.95
2017-03-18T12:48:41.391Z,13.87
2017-03-18T12:49:42.629Z,13.74
2017-03-18T12:50:43.958Z,13.76
2017-03-18T12:51:45.208Z,13.62
2017-03-18T12:52:46.478Z,13.65
2017-03-18T12:53:47.730Z,13.61
2017-03-18T12:54:48.978Z,13.52
2017-03-18T12:55:50.233Z,13.46
2017-03-18T12:56:51.497Z,13.37
2017-03-18T12:57:52.802Z,13.33
2017-03-18T12:58:54.078Z,13.25
2017-03-18T12:59:55.311Z,13.21
2017-03-18T13:00:56.582Z,13.18
2017-03-18T13:01:57.938Z,13.06
2017-03-18T13:02:59.182Z,13.06
2017-03-18T13:04:00.441Z,13.06
2017-03-18T13:05:01.687Z,12.97
2017-03-18T13:06:03.069Z,12.89
2017-03-18T13:07:04.230Z,12.85
2017-03-18T13:08:05.493Z,12.92
2017-03-18T13:09:06.781Z,12.85
2017-03-18T13:10:08.001Z,12.84
2017-03-18T13:11:09.321Z,12.85
2017-03-18T13:12:10.544Z,12.77
2017-03-18T13:13:11.794Z,12.97
2017-03-18T13:14:13.029Z,13.03
2017-03-18T13:15:14.358Z,13.18
2017-03-18T13:16:15.756Z,13.32
2017-03-18T13:17:16.972Z,13.25
2017-03-18T13:18:18.237Z,13.38
2017-03-18T13:19:19.464Z,13.47
2017-03-18T13:20:20.693Z,13.4
2017-03-18T13:21:21.951Z,13.44
2017-03-18T13:22:23.244Z,13.49
2017-03-18T13:23:24.784Z,13.38
2017-03-18T13:24:26.023Z,13.46
2017-03-18T13:25:27.259Z,13.37
2017-03-18T13:26:28.506Z,13.46
2017-03-18T13:27:29.763Z,13.18